sensor_id;sensor_type;location;lat;lon;timestamp;P1;durP1;ratioP1;P2;durP2;ratioP2
66189;SDS011;52992;52.084;5.412;2022-07-30T00:00:32;7.00;;;3.63;;
66189;SDS011;52992;52.084;5.412;2022-07-30T00:02:59;5.47;;;3.60;;
66189;SDS011;52992;52.084;5.412;2022-07-30T00:05:26;6.50;;;3.87;;
66189;SDS011;52992;52.084;5.412;2022-07-30T00:07:52;7.37;;;4.00;;
66189;SDS011;52992;52.084;5.412;2022-07-30T00:10:19;7.67;;;3.97;;
66189;SDS011;52992;52.084;5.412;2022-07-30T00:12:48;7.23;;;3.80;;
66189;SDS011;52992;52.084;5.412;2022-07-30T00:15:15;5.83;;;4.07;;
66189;SDS011;52992;52.084;5.412;2022-07-30T00:17:41;6.23;;;4.00;;
66189;SDS011;52992;52.084;5.412;2022-07-30T00:20:12;7.10;;;4.40;;
66189;SDS011;52992;52.084;5.412;2022-07-30T00:22:39;6.23;;;3.93;;
66189;SDS011;52992;52.084;5.412;2022-07-30T00:25:06;5.90;;;4.03;;
66189;SDS011;52992;52.084;5.412;2022-07-30T00:27:33;8.50;;;4.17;;
66189;SDS011;52992;52.084;5.412;2022-07-30T00:30:01;7.63;;;6.07;;
66189;SDS011;52992;52.084;5.412;2022-07-30T00:32:29;9.23;;;5.53;;
66189;SDS011;52992;52.084;5.412;2022-07-30T00:34:56;8.03;;;4.40;;
66189;SDS011;52992;52.084;5.412;2022-07-30T00:37:23;6.57;;;4.13;;
66189;SDS011;52992;52.084;5.412;2022-07-30T00:39:50;6.90;;;4.37;;
66189;SDS011;52992;52.084;5.412;2022-07-30T00:42:17;5.73;;;4.30;;
66189;SDS011;52992;52.084;5.412;2022-07-30T00:44:51;8.57;;;4.47;;
66189;SDS011;52992;52.084;5.412;2022-07-30T00:47:18;5.33;;;3.57;;
66189;SDS011;52992;52.084;5.412;2022-07-30T00:49:45;5.30;;;3.93;;
66189;SDS011;52992;52.084;5.412;2022-07-30T00:52:12;8.70;;;4.10;;
66189;SDS011;52992;52.084;5.412;2022-07-30T00:54:39;6.40;;;4.20;;
66189;SDS011;52992;52.084;5.412;2022-07-30T00:57:06;5.73;;;4.17;;
66189;SDS011;52992;52.084;5.412;2022-07-30T00:59:34;9.27;;;4.47;;
66189;SDS011;52992;52.084;5.412;2022-07-30T01:02:01;8.77;;;4.27;;
66189;SDS011;52992;52.084;5.412;2022-07-30T01:04:28;7.87;;;4.50;;
66189;SDS011;52992;52.084;5.412;2022-07-30T01:06:56;8.00;;;4.47;;
66189;SDS011;52992;52.084;5.412;2022-07-30T01:09:23;7.00;;;4.57;;
66189;SDS011;52992;52.084;5.412;2022-07-30T01:11:50;8.33;;;4.67;;
66189;SDS011;52992;52.084;5.412;2022-07-30T01:14:17;6.33;;;4.47;;
66189;SDS011;52992;52.084;5.412;2022-07-30T01:16:44;8.17;;;4.53;;
66189;SDS011;52992;52.084;5.412;2022-07-30T01:19:22;5.80;;;4.37;;
66189;SDS011;52992;52.084;5.412;2022-07-30T01:27:33;7.93;;;4.53;;
66189;SDS011;52992;52.084;5.412;2022-07-30T01:30:06;9.07;;;4.43;;
66189;SDS011;52992;52.084;5.412;2022-07-30T01:32:35;7.17;;;4.77;;
66189;SDS011;52992;52.084;5.412;2022-07-30T01:35:06;11.87;;;6.43;;
66189;SDS011;52992;52.084;5.412;2022-07-30T01:37:35;12.73;;;7.50;;
66189;SDS011;52992;52.084;5.412;2022-07-30T01:40:04;9.00;;;6.30;;
66189;SDS011;52992;52.084;5.412;2022-07-30T01:42:31;9.07;;;4.87;;
66189;SDS011;52992;52.084;5.412;2022-07-30T01:45:01;12.97;;;5.47;;
66189;SDS011;52992;52.084;5.412;2022-07-30T01:47:29;7.17;;;5.23;;
66189;SDS011;52992;52.084;5.412;2022-07-30T01:50:00;6.30;;;4.50;;
66189;SDS011;52992;52.084;5.412;2022-07-30T01:52:29;7.30;;;4.77;;
66189;SDS011;52992;52.084;5.412;2022-07-30T01:54:59;7.60;;;4.93;;
66189;SDS011;52992;52.084;5.412;2022-07-30T01:57:27;7.53;;;5.20;;
66189;SDS011;52992;52.084;5.412;2022-07-30T01:59:57;8.37;;;5.60;;
66189;SDS011;52992;52.084;5.412;2022-07-30T02:02:29;12.47;;;7.80;;
66189;SDS011;52992;52.084;5.412;2022-07-30T02:04:57;11.50;;;5.93;;
66189;SDS011;52992;52.084;5.412;2022-07-30T02:07:35;6.67;;;5.17;;
66189;SDS011;52992;52.084;5.412;2022-07-30T02:10:16;8.87;;;5.60;;
66189;SDS011;52992;52.084;5.412;2022-07-30T02:12:52;8.43;;;5.10;;
66189;SDS011;52992;52.084;5.412;2022-07-30T02:15:30;6.97;;;5.23;;
66189;SDS011;52992;52.084;5.412;2022-07-30T02:18:08;7.60;;;4.90;;
66189;SDS011;52992;52.084;5.412;2022-07-30T02:20:42;9.37;;;5.30;;
66189;SDS011;52992;52.084;5.412;2022-07-30T02:23:14;7.43;;;5.37;;
66189;SDS011;52992;52.084;5.412;2022-07-30T02:25:48;6.13;;;5.23;;
66189;SDS011;52992;52.084;5.412;2022-07-30T02:28:20;9.87;;;5.30;;
66189;SDS011;52992;52.084;5.412;2022-07-30T02:30:50;9.47;;;5.67;;
66189;SDS011;52992;52.084;5.412;2022-07-30T02:33:25;15.20;;;5.40;;
66189;SDS011;52992;52.084;5.412;2022-07-30T02:35:57;11.00;;;5.83;;
66189;SDS011;52992;52.084;5.412;2022-07-30T02:38:25;7.60;;;5.13;;
66189;SDS011;52992;52.084;5.412;2022-07-30T02:40:58;8.67;;;5.70;;
66189;SDS011;52992;52.084;5.412;2022-07-30T02:43:28;8.43;;;5.43;;
66189;SDS011;52992;52.084;5.412;2022-07-30T02:46:02;11.20;;;5.07;;
66189;SDS011;52992;52.084;5.412;2022-07-30T02:48:51;8.13;;;5.73;;
66189;SDS011;52992;52.084;5.412;2022-07-30T02:51:21;6.10;;;5.40;;
66189;SDS011;52992;52.084;5.412;2022-07-30T02:53:50;7.13;;;5.40;;
66189;SDS011;52992;52.084;5.412;2022-07-30T02:56:20;7.53;;;5.17;;
66189;SDS011;52992;52.084;5.412;2022-07-30T02:58:48;7.77;;;5.43;;
66189;SDS011;52992;52.084;5.412;2022-07-30T03:01:16;7.77;;;5.33;;
66189;SDS011;52992;52.084;5.412;2022-07-30T03:03:44;10.97;;;5.90;;
66189;SDS011;52992;52.084;5.412;2022-07-30T03:06:13;10.13;;;6.07;;
66189;SDS011;52992;52.084;5.412;2022-07-30T03:08:42;7.47;;;5.87;;
66189;SDS011;52992;52.084;5.412;2022-07-30T03:11:11;9.20;;;6.40;;
66189;SDS011;52992;52.084;5.412;2022-07-30T03:13:39;10.10;;;6.10;;
66189;SDS011;52992;52.084;5.412;2022-07-30T03:16:08;10.77;;;6.53;;
66189;SDS011;52992;52.084;5.412;2022-07-30T03:18:36;9.13;;;6.43;;
66189;SDS011;52992;52.084;5.412;2022-07-30T03:21:05;10.77;;;7.07;;
66189;SDS011;52992;52.084;5.412;2022-07-30T03:23:35;8.90;;;6.43;;
66189;SDS011;52992;52.084;5.412;2022-07-30T03:26:04;13.37;;;6.87;;
66189;SDS011;52992;52.084;5.412;2022-07-30T03:28:33;11.23;;;5.50;;
66189;SDS011;52992;52.084;5.412;2022-07-30T03:31:03;9.93;;;5.90;;
66189;SDS011;52992;52.084;5.412;2022-07-30T03:33:31;9.27;;;6.40;;
66189;SDS011;52992;52.084;5.412;2022-07-30T03:36:04;10.20;;;5.70;;
66189;SDS011;52992;52.084;5.412;2022-07-30T03:38:34;9.17;;;5.87;;
66189;SDS011;52992;52.084;5.412;2022-07-30T03:41:03;8.10;;;5.70;;
66189;SDS011;52992;52.084;5.412;2022-07-30T03:43:32;9.10;;;6.20;;
66189;SDS011;52992;52.084;5.412;2022-07-30T03:46:05;8.83;;;6.30;;
66189;SDS011;52992;52.084;5.412;2022-07-30T03:48:38;9.83;;;6.17;;
66189;SDS011;52992;52.084;5.412;2022-07-30T03:51:06;10.87;;;6.63;;
66189;SDS011;52992;52.084;5.412;2022-07-30T03:53:38;9.30;;;6.77;;
66189;SDS011;52992;52.084;5.412;2022-07-30T03:56:34;8.97;;;6.20;;
66189;SDS011;52992;52.084;5.412;2022-07-30T03:59:09;8.20;;;6.30;;
66189;SDS011;52992;52.084;5.412;2022-07-30T04:01:39;8.90;;;6.30;;
66189;SDS011;52992;52.084;5.412;2022-07-30T04:04:29;9.90;;;6.73;;
66189;SDS011;52992;52.084;5.412;2022-07-30T04:06:56;9.80;;;7.03;;
66189;SDS011;52992;52.084;5.412;2022-07-30T04:09:24;7.80;;;6.43;;
66189;SDS011;52992;52.084;5.412;2022-07-30T04:11:51;8.63;;;6.80;;
66189;SDS011;52992;52.084;5.412;2022-07-30T04:14:23;8.37;;;6.03;;
66189;SDS011;52992;52.084;5.412;2022-07-30T04:16:58;11.17;;;6.73;;
66189;SDS011;52992;52.084;5.412;2022-07-30T04:19:37;9.40;;;7.07;;
66189;SDS011;52992;52.084;5.412;2022-07-30T04:22:10;13.90;;;7.90;;
66189;SDS011;52992;52.084;5.412;2022-07-30T04:24:39;9.07;;;7.40;;
66189;SDS011;52992;52.084;5.412;2022-07-30T04:27:06;12.83;;;7.90;;
66189;SDS011;52992;52.084;5.412;2022-07-30T04:29:33;13.57;;;8.10;;
66189;SDS011;52992;52.084;5.412;2022-07-30T04:32:00;14.50;;;8.70;;
66189;SDS011;52992;52.084;5.412;2022-07-30T04:34:56;14.13;;;8.70;;
66189;SDS011;52992;52.084;5.412;2022-07-30T04:37:41;13.87;;;9.40;;
66189;SDS011;52992;52.084;5.412;2022-07-30T04:40:08;13.33;;;8.37;;
66189;SDS011;52992;52.084;5.412;2022-07-30T04:42:35;10.17;;;8.00;;
66189;SDS011;52992;52.084;5.412;2022-07-30T04:45:05;13.00;;;8.87;;
66189;SDS011;52992;52.084;5.412;2022-07-30T04:47:50;10.67;;;7.83;;
66189;SDS011;52992;52.084;5.412;2022-07-30T04:50:20;13.87;;;10.03;;
66189;SDS011;52992;52.084;5.412;2022-07-30T04:52:51;13.53;;;9.83;;
66189;SDS011;52992;52.084;5.412;2022-07-30T04:55:25;14.47;;;9.30;;
66189;SDS011;52992;52.084;5.412;2022-07-30T04:57:53;14.97;;;10.53;;
66189;SDS011;52992;52.084;5.412;2022-07-30T05:00:21;16.57;;;11.07;;
66189;SDS011;52992;52.084;5.412;2022-07-30T05:02:49;13.60;;;10.33;;
66189;SDS011;52992;52.084;5.412;2022-07-30T05:05:18;12.03;;;8.93;;
66189;SDS011;52992;52.084;5.412;2022-07-30T05:07:46;13.47;;;9.43;;
66189;SDS011;52992;52.084;5.412;2022-07-30T05:10:13;18.40;;;10.90;;
66189;SDS011;52992;52.084;5.412;2022-07-30T05:12:41;14.83;;;9.50;;
66189;SDS011;52992;52.084;5.412;2022-07-30T05:15:09;14.93;;;10.67;;
66189;SDS011;52992;52.084;5.412;2022-07-30T05:17:36;16.47;;;10.70;;
66189;SDS011;52992;52.084;5.412;2022-07-30T05:20:06;14.60;;;10.67;;
66189;SDS011;52992;52.084;5.412;2022-07-30T05:22:53;13.43;;;9.80;;
66189;SDS011;52992;52.084;5.412;2022-07-30T05:25:21;14.20;;;9.47;;
66189;SDS011;52992;52.084;5.412;2022-07-30T05:27:51;13.53;;;9.33;;
66189;SDS011;52992;52.084;5.412;2022-07-30T05:30:18;14.17;;;9.83;;
66189;SDS011;52992;52.084;5.412;2022-07-30T05:32:53;14.07;;;9.37;;
66189;SDS011;52992;52.084;5.412;2022-07-30T05:35:21;12.97;;;8.93;;
66189;SDS011;52992;52.084;5.412;2022-07-30T05:37:48;11.30;;;8.07;;
66189;SDS011;52992;52.084;5.412;2022-07-30T05:40:17;14.67;;;9.17;;
66189;SDS011;52992;52.084;5.412;2022-07-30T05:43:03;12.07;;;9.03;;
66189;SDS011;52992;52.084;5.412;2022-07-30T05:45:32;12.53;;;8.97;;
66189;SDS011;52992;52.084;5.412;2022-07-30T05:47:58;12.57;;;7.90;;
66189;SDS011;52992;52.084;5.412;2022-07-30T05:50:25;17.10;;;8.30;;
66189;SDS011;52992;52.084;5.412;2022-07-30T05:52:52;10.50;;;7.30;;
66189;SDS011;52992;52.084;5.412;2022-07-30T05:55:59;13.17;;;7.33;;
66189;SDS011;52992;52.084;5.412;2022-07-30T05:58:44;10.83;;;8.50;;
66189;SDS011;52992;52.084;5.412;2022-07-30T06:01:16;10.40;;;8.00;;
66189;SDS011;52992;52.084;5.412;2022-07-30T06:03:43;10.83;;;7.50;;
66189;SDS011;52992;52.084;5.412;2022-07-30T06:06:39;11.07;;;8.50;;
66189;SDS011;52992;52.084;5.412;2022-07-30T06:09:06;12.27;;;7.37;;
66189;SDS011;52992;52.084;5.412;2022-07-30T06:11:33;8.80;;;6.83;;
66189;SDS011;52992;52.084;5.412;2022-07-30T06:14:00;11.83;;;6.60;;
66189;SDS011;52992;52.084;5.412;2022-07-30T06:16:27;10.47;;;6.90;;
66189;SDS011;52992;52.084;5.412;2022-07-30T06:18:54;10.43;;;7.17;;
66189;SDS011;52992;52.084;5.412;2022-07-30T06:21:38;9.77;;;6.13;;
66189;SDS011;52992;52.084;5.412;2022-07-30T06:24:27;8.40;;;5.93;;
66189;SDS011;52992;52.084;5.412;2022-07-30T06:27:12;9.40;;;5.90;;
66189;SDS011;52992;52.084;5.412;2022-07-30T06:29:39;6.23;;;5.60;;
66189;SDS011;52992;52.084;5.412;2022-07-30T06:32:12;10.93;;;5.20;;
66189;SDS011;52992;52.084;5.412;2022-07-30T06:34:42;7.33;;;4.57;;
66189;SDS011;52992;52.084;5.412;2022-07-30T06:37:13;7.57;;;4.47;;
66189;SDS011;52992;52.084;5.412;2022-07-30T06:40:07;7.83;;;4.57;;
66189;SDS011;52992;52.084;5.412;2022-07-30T06:42:58;7.27;;;3.83;;
66189;SDS011;52992;52.084;5.412;2022-07-30T06:45:58;5.83;;;4.00;;
66189;SDS011;52992;52.084;5.412;2022-07-30T06:48:36;9.20;;;4.27;;
66189;SDS011;52992;52.084;5.412;2022-07-30T06:51:14;7.10;;;3.87;;
66189;SDS011;52992;52.084;5.412;2022-07-30T06:53:41;6.43;;;4.27;;
66189;SDS011;52992;52.084;5.412;2022-07-30T06:56:11;6.23;;;4.00;;
66189;SDS011;52992;52.084;5.412;2022-07-30T06:58:52;6.20;;;3.37;;
66189;SDS011;52992;52.084;5.412;2022-07-30T07:01:38;4.83;;;3.13;;
66189;SDS011;52992;52.084;5.412;2022-07-30T07:04:05;3.73;;;3.07;;
66189;SDS011;52992;52.084;5.412;2022-07-30T07:06:34;8.90;;;3.00;;
66189;SDS011;52992;52.084;5.412;2022-07-30T07:09:02;5.33;;;2.83;;
66189;SDS011;52992;52.084;5.412;2022-07-30T07:11:43;6.03;;;3.27;;
66189;SDS011;52992;52.084;5.412;2022-07-30T07:14:13;4.73;;;3.03;;
66189;SDS011;52992;52.084;5.412;2022-07-30T07:16:40;10.93;;;3.03;;
66189;SDS011;52992;52.084;5.412;2022-07-30T07:19:33;3.27;;;2.70;;
66189;SDS011;52992;52.084;5.412;2022-07-30T07:22:20;7.00;;;3.30;;
66189;SDS011;52992;52.084;5.412;2022-07-30T07:24:46;7.27;;;3.73;;
66189;SDS011;52992;52.084;5.412;2022-07-30T07:27:17;4.00;;;3.10;;
66189;SDS011;52992;52.084;5.412;2022-07-30T07:29:47;3.40;;;3.00;;
66189;SDS011;52992;52.084;5.412;2022-07-30T07:32:30;5.63;;;3.23;;
66189;SDS011;52992;52.084;5.412;2022-07-30T07:34:58;6.47;;;3.50;;
66189;SDS011;52992;52.084;5.412;2022-07-30T07:37:25;5.43;;;3.13;;
66189;SDS011;52992;52.084;5.412;2022-07-30T07:39:54;4.67;;;3.00;;
66189;SDS011;52992;52.084;5.412;2022-07-30T07:42:21;5.43;;;3.47;;
66189;SDS011;52992;52.084;5.412;2022-07-30T07:44:49;4.37;;;3.30;;
66189;SDS011;52992;52.084;5.412;2022-07-30T07:47:17;3.70;;;3.17;;
66189;SDS011;52992;52.084;5.412;2022-07-30T07:49:57;4.50;;;3.20;;
66189;SDS011;52992;52.084;5.412;2022-07-30T07:52:24;3.43;;;3.00;;
66189;SDS011;52992;52.084;5.412;2022-07-30T07:54:51;4.70;;;3.10;;
66189;SDS011;52992;52.084;5.412;2022-07-30T07:57:18;4.70;;;3.07;;
66189;SDS011;52992;52.084;5.412;2022-07-30T07:59:46;6.73;;;2.93;;
66189;SDS011;52992;52.084;5.412;2022-07-30T08:02:22;5.17;;;3.20;;
66189;SDS011;52992;52.084;5.412;2022-07-30T08:04:56;5.47;;;3.50;;
66189;SDS011;52992;52.084;5.412;2022-07-30T08:07:32;3.63;;;2.60;;
66189;SDS011;52992;52.084;5.412;2022-07-30T08:10:22;6.80;;;3.37;;
66189;SDS011;52992;52.084;5.412;2022-07-30T08:12:50;5.53;;;3.23;;
66189;SDS011;52992;52.084;5.412;2022-07-30T08:15:48;3.20;;;2.70;;
66189;SDS011;52992;52.084;5.412;2022-07-30T08:18:34;3.93;;;3.00;;
66189;SDS011;52992;52.084;5.412;2022-07-30T08:21:16;4.53;;;3.10;;
66189;SDS011;52992;52.084;5.412;2022-07-30T08:23:43;5.60;;;3.20;;
66189;SDS011;52992;52.084;5.412;2022-07-30T08:26:13;2.93;;;2.53;;
66189;SDS011;52992;52.084;5.412;2022-07-30T08:28:40;5.00;;;3.23;;
66189;SDS011;52992;52.084;5.412;2022-07-30T08:31:08;4.27;;;2.50;;
66189;SDS011;52992;52.084;5.412;2022-07-30T08:33:35;3.50;;;2.33;;
66189;SDS011;52992;52.084;5.412;2022-07-30T08:36:05;6.33;;;2.87;;
66189;SDS011;52992;52.084;5.412;2022-07-30T08:38:35;4.03;;;2.43;;
66189;SDS011;52992;52.084;5.412;2022-07-30T08:41:04;2.47;;;2.20;;
66189;SDS011;52992;52.084;5.412;2022-07-30T08:43:31;3.00;;;2.40;;
66189;SDS011;52992;52.084;5.412;2022-07-30T08:46:03;3.50;;;2.47;;
66189;SDS011;52992;52.084;5.412;2022-07-30T08:48:44;4.20;;;2.80;;
66189;SDS011;52992;52.084;5.412;2022-07-30T08:51:14;4.87;;;2.70;;
66189;SDS011;52992;52.084;5.412;2022-07-30T08:54:07;3.13;;;2.20;;
66189;SDS011;52992;52.084;5.412;2022-07-30T08:56:39;3.30;;;2.00;;
66189;SDS011;52992;52.084;5.412;2022-07-30T08:59:07;3.67;;;2.00;;
66189;SDS011;52992;52.084;5.412;2022-07-30T09:01:34;3.17;;;2.20;;
66189;SDS011;52992;52.084;5.412;2022-07-30T09:04:04;4.17;;;2.40;;
66189;SDS011;52992;52.084;5.412;2022-07-30T09:06:36;2.30;;;2.07;;
66189;SDS011;52992;52.084;5.412;2022-07-30T09:09:04;2.80;;;2.30;;
66189;SDS011;52992;52.084;5.412;2022-07-30T09:11:32;4.07;;;2.57;;
66189;SDS011;52992;52.084;5.412;2022-07-30T09:14:11;4.97;;;2.40;;
66189;SDS011;52992;52.084;5.412;2022-07-30T09:16:40;3.03;;;2.10;;
66189;SDS011;52992;52.084;5.412;2022-07-30T09:19:20;3.73;;;2.73;;
66189;SDS011;52992;52.084;5.412;2022-07-30T09:21:58;3.23;;;2.40;;
66189;SDS011;52992;52.084;5.412;2022-07-30T09:24:45;4.07;;;3.07;;
66189;SDS011;52992;52.084;5.412;2022-07-30T09:27:42;2.50;;;2.23;;
66189;SDS011;52992;52.084;5.412;2022-07-30T09:30:48;5.30;;;3.03;;
66189;SDS011;52992;52.084;5.412;2022-07-30T09:33:38;5.00;;;2.90;;
66189;SDS011;52992;52.084;5.412;2022-07-30T09:36:25;4.73;;;2.67;;
66189;SDS011;52992;52.084;5.412;2022-07-30T09:39:26;4.23;;;2.93;;
66189;SDS011;52992;52.084;5.412;2022-07-30T09:42:19;4.87;;;2.70;;
66189;SDS011;52992;52.084;5.412;2022-07-30T09:44:50;3.80;;;2.77;;
66189;SDS011;52992;52.084;5.412;2022-07-30T09:47:31;2.30;;;2.20;;
66189;SDS011;52992;52.084;5.412;2022-07-30T09:52:37;4.43;;;2.13;;
66189;SDS011;52992;52.084;5.412;2022-07-30T09:55:14;2.40;;;2.20;;
66189;SDS011;52992;52.084;5.412;2022-07-30T09:58:11;2.20;;;2.00;;
66189;SDS011;52992;52.084;5.412;2022-07-30T10:00:56;3.10;;;2.30;;
66189;SDS011;52992;52.084;5.412;2022-07-30T10:03:44;3.97;;;2.60;;
66189;SDS011;52992;52.084;5.412;2022-07-30T10:06:33;2.00;;;1.90;;
66189;SDS011;52992;52.084;5.412;2022-07-30T10:09:28;2.97;;;1.97;;
66189;SDS011;52992;52.084;5.412;2022-07-30T10:12:04;4.10;;;1.90;;
66189;SDS011;52992;52.084;5.412;2022-07-30T10:14:36;5.07;;;3.70;;
66189;SDS011;52992;52.084;5.412;2022-07-30T10:17:10;3.70;;;3.03;;
66189;SDS011;52992;52.084;5.412;2022-07-30T10:19:39;4.57;;;3.33;;
66189;SDS011;52992;52.084;5.412;2022-07-30T10:22:33;2.63;;;2.43;;
66189;SDS011;52992;52.084;5.412;2022-07-30T10:25:36;3.23;;;2.10;;
66189;SDS011;52992;52.084;5.412;2022-07-30T10:28:46;3.23;;;2.10;;
66189;SDS011;52992;52.084;5.412;2022-07-30T10:31:14;2.33;;;1.80;;
66189;SDS011;52992;52.084;5.412;2022-07-30T10:34:02;3.83;;;1.80;;
66189;SDS011;52992;52.084;5.412;2022-07-30T10:36:30;1.87;;;1.70;;
66189;SDS011;52992;52.084;5.412;2022-07-30T10:38:58;2.37;;;1.80;;
66189;SDS011;52992;52.084;5.412;2022-07-30T10:44:22;1.63;;;1.37;;
66189;SDS011;52992;52.084;5.412;2022-07-30T10:47:07;2.57;;;1.83;;
66189;SDS011;52992;52.084;5.412;2022-07-30T10:49:37;3.90;;;2.00;;
66189;SDS011;52992;52.084;5.412;2022-07-30T10:52:08;2.03;;;1.80;;
66189;SDS011;52992;52.084;5.412;2022-07-30T10:54:36;1.93;;;1.80;;
66189;SDS011;52992;52.084;5.412;2022-07-30T10:57:13;2.83;;;1.63;;
66189;SDS011;52992;52.084;5.412;2022-07-30T11:02:22;2.97;;;1.80;;
66189;SDS011;52992;52.084;5.412;2022-07-30T11:11:44;3.97;;;1.97;;
66189;SDS011;52992;52.084;5.412;2022-07-30T11:14:15;1.97;;;1.70;;
66189;SDS011;52992;52.084;5.412;2022-07-30T11:19:14;2.20;;;1.70;;
66189;SDS011;52992;52.084;5.412;2022-07-30T11:25:04;2.27;;;1.70;;
66189;SDS011;52992;52.084;5.412;2022-07-30T11:27:39;3.53;;;2.00;;
66189;SDS011;52992;52.084;5.412;2022-07-30T11:32:53;5.57;;;1.97;;
66189;SDS011;52992;52.084;5.412;2022-07-30T11:35:22;3.97;;;1.90;;
66189;SDS011;52992;52.084;5.412;2022-07-30T11:38:07;3.22;;;1.95;;
66189;SDS011;52992;52.084;5.412;2022-07-30T11:43:15;4.30;;;2.00;;
66189;SDS011;52992;52.084;5.412;2022-07-30T11:45:47;5.72;;;2.00;;
66189;SDS011;52992;52.084;5.412;2022-07-30T11:48:17;2.35;;;1.88;;
66189;SDS011;52992;52.084;5.412;2022-07-30T11:50:45;1.90;;;1.80;;
66189;SDS011;52992;52.084;5.412;2022-07-30T11:53:15;2.53;;;1.73;;
66189;SDS011;52992;52.084;5.412;2022-07-30T11:55:50;3.05;;;1.85;;
66189;SDS011;52992;52.084;5.412;2022-07-30T11:58:33;2.97;;;1.95;;
66189;SDS011;52992;52.084;5.412;2022-07-30T12:03:37;3.72;;;1.70;;
66189;SDS011;52992;52.084;5.412;2022-07-30T12:06:06;2.15;;;1.70;;
66189;SDS011;52992;52.084;5.412;2022-07-30T12:08:48;3.05;;;1.90;;
66189;SDS011;52992;52.084;5.412;2022-07-30T12:11:21;2.00;;;1.45;;
66189;SDS011;52992;52.084;5.412;2022-07-30T12:13:55;2.08;;;1.80;;
66189;SDS011;52992;52.084;5.412;2022-07-30T12:16:25;4.70;;;1.73;;
66189;SDS011;52992;52.084;5.412;2022-07-30T12:18:52;2.58;;;1.63;;
66189;SDS011;52992;52.084;5.412;2022-07-30T12:21:19;1.80;;;1.70;;
66189;SDS011;52992;52.084;5.412;2022-07-30T12:23:56;6.10;;;3.38;;
66189;SDS011;52992;52.084;5.412;2022-07-30T12:26:29;2.30;;;2.10;;
66189;SDS011;52992;52.084;5.412;2022-07-30T12:28:58;3.63;;;2.13;;
66189;SDS011;52992;52.084;5.412;2022-07-30T12:31:26;2.55;;;1.70;;
66189;SDS011;52992;52.084;5.412;2022-07-30T12:33:54;2.28;;;1.45;;
66189;SDS011;52992;52.084;5.412;2022-07-30T12:36:29;2.00;;;1.80;;
66189;SDS011;52992;52.084;5.412;2022-07-30T12:38:57;2.72;;;1.70;;
66189;SDS011;52992;52.084;5.412;2022-07-30T12:41:41;2.50;;;1.90;;
66189;SDS011;52992;52.084;5.412;2022-07-30T12:47:05;2.00;;;1.65;;
66189;SDS011;52992;52.084;5.412;2022-07-30T12:49:49;4.05;;;2.85;;
66189;SDS011;52992;52.084;5.412;2022-07-30T12:52:19;3.38;;;1.80;;
66189;SDS011;52992;52.084;5.412;2022-07-30T12:55:10;3.28;;;1.80;;
66189;SDS011;52992;52.084;5.412;2022-07-30T13:00:44;3.22;;;1.90;;
66189;SDS011;52992;52.084;5.412;2022-07-30T13:03:22;1.83;;;1.65;;
66189;SDS011;52992;52.084;5.412;2022-07-30T13:05:52;1.70;;;1.60;;
66189;SDS011;52992;52.084;5.412;2022-07-30T13:11:17;3.42;;;1.85;;
66189;SDS011;52992;52.084;5.412;2022-07-30T13:13:45;2.80;;;2.07;;
66189;SDS011;52992;52.084;5.412;2022-07-30T13:16:13;2.97;;;1.90;;
66189;SDS011;52992;52.084;5.412;2022-07-30T13:18:40;1.93;;;1.50;;
66189;SDS011;52992;52.084;5.412;2022-07-30T13:21:07;3.88;;;1.75;;
66189;SDS011;52992;52.084;5.412;2022-07-30T13:23:35;2.08;;;1.88;;
66189;SDS011;52992;52.084;5.412;2022-07-30T13:26:06;2.42;;;1.80;;
66189;SDS011;52992;52.084;5.412;2022-07-30T13:28:34;3.13;;;1.83;;
66189;SDS011;52992;52.084;5.412;2022-07-30T13:31:01;2.05;;;1.63;;
66189;SDS011;52992;52.084;5.412;2022-07-30T13:33:28;1.67;;;1.50;;
66189;SDS011;52992;52.084;5.412;2022-07-30T13:35:55;2.00;;;1.67;;
66189;SDS011;52992;52.084;5.412;2022-07-30T13:38:22;2.05;;;1.50;;
66189;SDS011;52992;52.084;5.412;2022-07-30T13:40:49;2.42;;;1.40;;
66189;SDS011;52992;52.084;5.412;2022-07-30T13:43:17;3.42;;;2.70;;
66189;SDS011;52992;52.084;5.412;2022-07-30T13:45:44;2.85;;;2.40;;
66189;SDS011;52992;52.084;5.412;2022-07-30T13:48:13;2.72;;;1.52;;
66189;SDS011;52992;52.084;5.412;2022-07-30T13:50:41;3.80;;;2.00;;
66189;SDS011;52992;52.084;5.412;2022-07-30T13:53:09;1.83;;;1.65;;
66189;SDS011;52992;52.084;5.412;2022-07-30T13:55:36;3.42;;;1.80;;
66189;SDS011;52992;52.084;5.412;2022-07-30T13:58:04;2.90;;;2.00;;
66189;SDS011;52992;52.084;5.412;2022-07-30T14:00:32;2.97;;;1.85;;
66189;SDS011;52992;52.084;5.412;2022-07-30T14:03:02;2.00;;;1.80;;
66189;SDS011;52992;52.084;5.412;2022-07-30T14:05:30;3.60;;;1.88;;
66189;SDS011;52992;52.084;5.412;2022-07-30T14:07:58;2.28;;;1.85;;
66189;SDS011;52992;52.084;5.412;2022-07-30T14:10:25;2.55;;;1.50;;
66189;SDS011;52992;52.084;5.412;2022-07-30T14:12:53;3.65;;;1.65;;
66189;SDS011;52992;52.084;5.412;2022-07-30T14:15:21;2.40;;;1.80;;
66189;SDS011;52992;52.084;5.412;2022-07-30T14:17:49;2.03;;;1.67;;
66189;SDS011;52992;52.084;5.412;2022-07-30T14:20:22;4.75;;;2.15;;
66189;SDS011;52992;52.084;5.412;2022-07-30T14:22:54;2.15;;;1.92;;
66189;SDS011;52992;52.084;5.412;2022-07-30T14:25:21;1.80;;;1.70;;
66189;SDS011;52992;52.084;5.412;2022-07-30T14:27:48;3.83;;;1.85;;
66189;SDS011;52992;52.084;5.412;2022-07-30T14:30:14;3.70;;;1.30;;
66189;SDS011;52992;52.084;5.412;2022-07-30T14:32:41;4.50;;;1.93;;
66189;SDS011;52992;52.084;5.412;2022-07-30T14:35:09;3.83;;;1.90;;
66189;SDS011;52992;52.084;5.412;2022-07-30T14:37:36;3.37;;;2.10;;
66189;SDS011;52992;52.084;5.412;2022-07-30T14:40:06;3.70;;;1.83;;
66189;SDS011;52992;52.084;5.412;2022-07-30T14:42:34;2.83;;;1.57;;
66189;SDS011;52992;52.084;5.412;2022-07-30T14:45:08;2.00;;;1.70;;
66189;SDS011;52992;52.084;5.412;2022-07-30T14:47:35;2.37;;;2.00;;
66189;SDS011;52992;52.084;5.412;2022-07-30T14:50:03;3.10;;;2.10;;
66189;SDS011;52992;52.084;5.412;2022-07-30T14:52:30;3.50;;;1.73;;
66189;SDS011;52992;52.084;5.412;2022-07-30T14:55:00;2.47;;;2.10;;
66189;SDS011;52992;52.084;5.412;2022-07-30T14:57:31;1.70;;;1.60;;
66189;SDS011;52992;52.084;5.412;2022-07-30T14:59:59;3.13;;;1.93;;
66189;SDS011;52992;52.084;5.412;2022-07-30T15:02:26;3.50;;;2.07;;
66189;SDS011;52992;52.084;5.412;2022-07-30T15:04:53;2.10;;;1.87;;
66189;SDS011;52992;52.084;5.412;2022-07-30T15:07:20;5.13;;;1.97;;
66189;SDS011;52992;52.084;5.412;2022-07-30T15:09:46;3.50;;;1.83;;
66189;SDS011;52992;52.084;5.412;2022-07-30T15:12:13;2.83;;;1.73;;
66189;SDS011;52992;52.084;5.412;2022-07-30T15:14:49;3.53;;;1.63;;
66189;SDS011;52992;52.084;5.412;2022-07-30T15:17:17;4.80;;;2.20;;
66189;SDS011;52992;52.084;5.412;2022-07-30T15:19:44;2.60;;;2.27;;
66189;SDS011;52992;52.084;5.412;2022-07-30T15:22:17;2.53;;;1.70;;
66189;SDS011;52992;52.084;5.412;2022-07-30T15:24:44;7.43;;;2.10;;
66189;SDS011;52992;52.084;5.412;2022-07-30T15:27:11;3.80;;;1.97;;
66189;SDS011;52992;52.084;5.412;2022-07-30T15:29:38;1.70;;;1.60;;
66189;SDS011;52992;52.084;5.412;2022-07-30T15:32:05;3.47;;;2.00;;
66189;SDS011;52992;52.084;5.412;2022-07-30T15:34:32;2.43;;;1.80;;
66189;SDS011;52992;52.084;5.412;2022-07-30T15:37:00;7.23;;;1.80;;
66189;SDS011;52992;52.084;5.412;2022-07-30T15:39:28;3.63;;;2.23;;
66189;SDS011;52992;52.084;5.412;2022-07-30T15:41:57;4.13;;;2.23;;
66189;SDS011;52992;52.084;5.412;2022-07-30T15:44:26;12.80;;;3.50;;
66189;SDS011;52992;52.084;5.412;2022-07-30T15:46:53;6.47;;;2.50;;
66189;SDS011;52992;52.084;5.412;2022-07-30T15:49:20;7.57;;;2.03;;
66189;SDS011;52992;52.084;5.412;2022-07-30T15:51:47;2.00;;;1.80;;
66189;SDS011;52992;52.084;5.412;2022-07-30T15:54:14;6.93;;;1.93;;
66189;SDS011;52992;52.084;5.412;2022-07-30T15:56:47;5.00;;;1.87;;
66189;SDS011;52992;52.084;5.412;2022-07-30T15:59:14;2.97;;;2.03;;